<?xml version="1.0" encoding="UTF-8" standalone="no" ?>
<gpx xmlns="http://www.topografix.com/GPX/1/1" xmlns:xsi="http://www.w3.org/2001/XMLSchema-instance" xsi:schemaLocation="http://www.topografix.com/GPX/1/1 http://www.topografix.com/GPX/1/1/gpx.xsd" version="1.1" creator="VisuGPX - https://www.visugpx.com">
  <metadata>
    <name>Le Ravon de Corboeuf - (JLo)</name>
    <desc><![CDATA[Une petite randonnée sur le lieu incroyable du Ravin de Corboeuf]]></desc>
  </metadata>
  <trk>
    <name><![CDATA[2015-08-19 12:51]]></name>
    <desc><![CDATA[<h1>OruxMaps</h1><br /><hr align="center" width="480" style="height: 2px; width: 517px"/><h2>Nom: 2015-08-19 12:51</h2><br /><p>Temps de départ: 08/19/2015 12:51</p><p>Temps d'arrivée: 08/19/2015 14:39</p><p>Distance: 4,3km (01:47)</p><p>Temps déplacement: 01:22</p><p>Vitesse moyenne: 2,4km/h</p><p>Vitesse moyenne: 3,1km/h</p><p>Vitess Max.: 7,6km/h</p><p>Altitude minimale: 668m</p><p>Altitude maximale: 785m</p><p>Vitesse d'élévation: 378,5m/h</p><p>Vitesse de descente: -400,9m/h</p><p>Gain Altitude: 187m</p><p>Perte Altitude: -247m</p><p>Temps d'élévation: 00:29</p><p>Temps de descente: 00:37</p><hr align="center" width="480" style="height: 2px; width: 517px"/>]]></desc>
    <trkseg>
      <trkpt lat="45.13374" lon="3.99155">
        <ele>675.84</ele>
        <time>2015-08-19T10:51:55Z</time>
      </trkpt>
      <trkpt lat="45.13363" lon="3.99154">
        <ele>676.01</ele>
        <time>2015-08-19T10:52:01Z</time>
      </trkpt>
      <trkpt lat="45.13351" lon="3.99153">
        <ele>676.14</ele>
        <time>2015-08-19T10:52:10Z</time>
      </trkpt>
      <trkpt lat="45.13339" lon="3.99155">
        <ele>676.25</ele>
        <time>2015-08-19T10:52:19Z</time>
      </trkpt>
      <trkpt lat="45.13328" lon="3.99161">
        <ele>676.17</ele>
        <time>2015-08-19T10:52:28Z</time>
      </trkpt>
      <trkpt lat="45.13318" lon="3.99164">
        <ele>676.33</ele>
        <time>2015-08-19T10:52:40Z</time>
      </trkpt>
      <trkpt lat="45.13301" lon="3.99171">
        <ele>677.93</ele>
        <time>2015-08-19T10:52:52Z</time>
      </trkpt>
      <trkpt lat="45.13294" lon="3.99178">
        <ele>678.95</ele>
        <time>2015-08-19T10:52:58Z</time>
      </trkpt>
      <trkpt lat="45.13285" lon="3.99188">
        <ele>679.45</ele>
        <time>2015-08-19T10:53:07Z</time>
      </trkpt>
      <trkpt lat="45.13275" lon="3.99197">
        <ele>679.29</ele>
        <time>2015-08-19T10:53:16Z</time>
      </trkpt>
      <trkpt lat="45.13265" lon="3.99203">
        <ele>679.16</ele>
        <time>2015-08-19T10:53:27Z</time>
      </trkpt>
      <trkpt lat="45.13258" lon="3.99211">
        <ele>679.34</ele>
        <time>2015-08-19T10:53:36Z</time>
      </trkpt>
      <trkpt lat="45.13247" lon="3.99218">
        <ele>679.15</ele>
        <time>2015-08-19T10:53:45Z</time>
      </trkpt>
      <trkpt lat="45.13235" lon="3.99226">
        <ele>678.56</ele>
        <time>2015-08-19T10:53:54Z</time>
      </trkpt>
      <trkpt lat="45.13223" lon="3.99229">
        <ele>677.48</ele>
        <time>2015-08-19T10:54:03Z</time>
      </trkpt>
      <trkpt lat="45.13213" lon="3.99231">
        <ele>675.79</ele>
        <time>2015-08-19T10:54:12Z</time>
      </trkpt>
      <trkpt lat="45.13202" lon="3.99239">
        <ele>674.63</ele>
        <time>2015-08-19T10:54:21Z</time>
      </trkpt>
      <trkpt lat="45.13191" lon="3.99242">
        <ele>673.45</ele>
        <time>2015-08-19T10:54:30Z</time>
      </trkpt>
      <trkpt lat="45.13181" lon="3.99244">
        <ele>673.9</ele>
        <time>2015-08-19T10:54:39Z</time>
      </trkpt>
      <trkpt lat="45.13172" lon="3.99239">
        <ele>673.88</ele>
        <time>2015-08-19T10:54:49Z</time>
      </trkpt>
      <trkpt lat="45.13159" lon="3.99237">
        <ele>672.4</ele>
        <time>2015-08-19T10:55:01Z</time>
      </trkpt>
      <trkpt lat="45.13148" lon="3.99237">
        <ele>671.28</ele>
        <time>2015-08-19T10:55:09Z</time>
      </trkpt>
      <trkpt lat="45.13139" lon="3.99233">
        <ele>671.34</ele>
        <time>2015-08-19T10:55:18Z</time>
      </trkpt>
      <trkpt lat="45.13128" lon="3.99229">
        <ele>671.89</ele>
        <time>2015-08-19T10:55:30Z</time>
      </trkpt>
      <trkpt lat="45.13119" lon="3.99226">
        <ele>671.99</ele>
        <time>2015-08-19T10:55:36Z</time>
      </trkpt>
      <trkpt lat="45.1311" lon="3.99221">
        <ele>672.1</ele>
        <time>2015-08-19T10:55:45Z</time>
      </trkpt>
      <trkpt lat="45.13099" lon="3.99219">
        <ele>672.04</ele>
        <time>2015-08-19T10:55:54Z</time>
      </trkpt>
      <trkpt lat="45.13085" lon="3.99217">
        <ele>672.15</ele>
        <time>2015-08-19T10:56:03Z</time>
      </trkpt>
      <trkpt lat="45.13073" lon="3.99214">
        <ele>672.34</ele>
        <time>2015-08-19T10:56:12Z</time>
      </trkpt>
      <trkpt lat="45.13064" lon="3.99217">
        <ele>673</ele>
        <time>2015-08-19T10:56:24Z</time>
      </trkpt>
      <trkpt lat="45.13055" lon="3.99221">
        <ele>673.71</ele>
        <time>2015-08-19T10:56:33Z</time>
      </trkpt>
      <trkpt lat="45.13045" lon="3.99225">
        <ele>674.27</ele>
        <time>2015-08-19T10:56:42Z</time>
      </trkpt>
      <trkpt lat="45.13033" lon="3.99232">
        <ele>675.02</ele>
        <time>2015-08-19T10:56:51Z</time>
      </trkpt>
      <trkpt lat="45.13024" lon="3.99241">
        <ele>675.61</ele>
        <time>2015-08-19T10:57:00Z</time>
      </trkpt>
      <trkpt lat="45.13015" lon="3.9925">
        <ele>676.04</ele>
        <time>2015-08-19T10:57:09Z</time>
      </trkpt>
      <trkpt lat="45.13005" lon="3.99257">
        <ele>676.34</ele>
        <time>2015-08-19T10:57:18Z</time>
      </trkpt>
      <trkpt lat="45.12996" lon="3.99266">
        <ele>676.38</ele>
        <time>2015-08-19T10:57:27Z</time>
      </trkpt>
      <trkpt lat="45.12988" lon="3.99274">
        <ele>676.48</ele>
        <time>2015-08-19T10:57:36Z</time>
      </trkpt>
      <trkpt lat="45.12981" lon="3.99285">
        <ele>677.19</ele>
        <time>2015-08-19T10:57:45Z</time>
      </trkpt>
      <trkpt lat="45.12974" lon="3.99296">
        <ele>677.97</ele>
        <time>2015-08-19T10:57:54Z</time>
      </trkpt>
      <trkpt lat="45.12967" lon="3.99306">
        <ele>678.4</ele>
        <time>2015-08-19T10:58:03Z</time>
      </trkpt>
      <trkpt lat="45.12957" lon="3.99315">
        <ele>678.39</ele>
        <time>2015-08-19T10:58:15Z</time>
      </trkpt>
      <trkpt lat="45.12949" lon="3.99322">
        <ele>678.18</ele>
        <time>2015-08-19T10:58:22Z</time>
      </trkpt>
      <trkpt lat="45.12941" lon="3.99329">
        <ele>677.99</ele>
        <time>2015-08-19T10:58:29Z</time>
      </trkpt>
      <trkpt lat="45.12933" lon="3.99337">
        <ele>677.1</ele>
        <time>2015-08-19T10:58:38Z</time>
      </trkpt>
      <trkpt lat="45.12925" lon="3.99344">
        <ele>675.89</ele>
        <time>2015-08-19T10:58:47Z</time>
      </trkpt>
      <trkpt lat="45.12916" lon="3.9935">
        <ele>674.89</ele>
        <time>2015-08-19T10:58:56Z</time>
      </trkpt>
      <trkpt lat="45.1291" lon="3.99365">
        <ele>673.29</ele>
        <time>2015-08-19T10:59:05Z</time>
      </trkpt>
      <trkpt lat="45.12902" lon="3.99379">
        <ele>671.96</ele>
        <time>2015-08-19T10:59:14Z</time>
      </trkpt>
      <trkpt lat="45.12893" lon="3.99391">
        <ele>671.42</ele>
        <time>2015-08-19T10:59:23Z</time>
      </trkpt>
      <trkpt lat="45.12889" lon="3.99407">
        <ele>671.33</ele>
        <time>2015-08-19T10:59:32Z</time>
      </trkpt>
      <trkpt lat="45.12887" lon="3.99421">
        <ele>670.99</ele>
        <time>2015-08-19T10:59:41Z</time>
      </trkpt>
      <trkpt lat="45.12881" lon="3.99434">
        <ele>670.94</ele>
        <time>2015-08-19T10:59:53Z</time>
      </trkpt>
      <trkpt lat="45.12873" lon="3.99446">
        <ele>670.93</ele>
        <time>2015-08-19T11:00:02Z</time>
      </trkpt>
      <trkpt lat="45.12867" lon="3.9946">
        <ele>670.95</ele>
        <time>2015-08-19T11:00:14Z</time>
      </trkpt>
      <trkpt lat="45.12862" lon="3.99475">
        <ele>671.15</ele>
        <time>2015-08-19T11:00:23Z</time>
      </trkpt>
      <trkpt lat="45.12853" lon="3.99487">
        <ele>671.39</ele>
        <time>2015-08-19T11:00:32Z</time>
      </trkpt>
      <trkpt lat="45.12844" lon="3.99499">
        <ele>671.06</ele>
        <time>2015-08-19T11:00:41Z</time>
      </trkpt>
      <trkpt lat="45.12836" lon="3.99513">
        <ele>670.28</ele>
        <time>2015-08-19T11:00:50Z</time>
      </trkpt>
      <trkpt lat="45.12828" lon="3.9952">
        <ele>669.53</ele>
        <time>2015-08-19T11:00:56Z</time>
      </trkpt>
      <trkpt lat="45.12822" lon="3.9953">
        <ele>668.84</ele>
        <time>2015-08-19T11:01:02Z</time>
      </trkpt>
      <trkpt lat="45.12819" lon="3.99542">
        <ele>668.74</ele>
        <time>2015-08-19T11:01:11Z</time>
      </trkpt>
      <trkpt lat="45.12813" lon="3.99555">
        <ele>669.1</ele>
        <time>2015-08-19T11:01:20Z</time>
      </trkpt>
      <trkpt lat="45.12807" lon="3.99572">
        <ele>669.12</ele>
        <time>2015-08-19T11:01:29Z</time>
      </trkpt>
      <trkpt lat="45.12802" lon="3.99586">
        <ele>669.52</ele>
        <time>2015-08-19T11:01:38Z</time>
      </trkpt>
      <trkpt lat="45.12801" lon="3.99599">
        <ele>670.21</ele>
        <time>2015-08-19T11:01:44Z</time>
      </trkpt>
      <trkpt lat="45.12801" lon="3.99617">
        <ele>672.31</ele>
        <time>2015-08-19T11:01:54Z</time>
      </trkpt>
      <trkpt lat="45.128" lon="3.9963">
        <ele>673.76</ele>
        <time>2015-08-19T11:02:00Z</time>
      </trkpt>
      <trkpt lat="45.12795" lon="3.99644">
        <ele>675.18</ele>
        <time>2015-08-19T11:02:09Z</time>
      </trkpt>
      <trkpt lat="45.12795" lon="3.99659">
        <ele>676.08</ele>
        <time>2015-08-19T11:02:15Z</time>
      </trkpt>
      <trkpt lat="45.12796" lon="3.99678">
        <ele>677.53</ele>
        <time>2015-08-19T11:02:24Z</time>
      </trkpt>
      <trkpt lat="45.12796" lon="3.99694">
        <ele>679.22</ele>
        <time>2015-08-19T11:02:36Z</time>
      </trkpt>
      <trkpt lat="45.12799" lon="3.99709">
        <ele>679.7</ele>
        <time>2015-08-19T11:02:42Z</time>
      </trkpt>
      <trkpt lat="45.12802" lon="3.99726">
        <ele>680.93</ele>
        <time>2015-08-19T11:02:51Z</time>
      </trkpt>
      <trkpt lat="45.12805" lon="3.99739">
        <ele>683.66</ele>
        <time>2015-08-19T11:03:12Z</time>
      </trkpt>
      <trkpt lat="45.12806" lon="3.99753">
        <ele>685.64</ele>
        <time>2015-08-19T11:03:30Z</time>
      </trkpt>
      <trkpt lat="45.12804" lon="3.99766">
        <ele>685.91</ele>
        <time>2015-08-19T11:03:36Z</time>
      </trkpt>
      <trkpt lat="45.12804" lon="3.9978">
        <ele>686.24</ele>
        <time>2015-08-19T11:03:45Z</time>
      </trkpt>
      <trkpt lat="45.12802" lon="3.99796">
        <ele>686.57</ele>
        <time>2015-08-19T11:03:54Z</time>
      </trkpt>
      <trkpt lat="45.12799" lon="3.99815">
        <ele>686.59</ele>
        <time>2015-08-19T11:04:03Z</time>
      </trkpt>
      <trkpt lat="45.12792" lon="3.99829">
        <ele>686.25</ele>
        <time>2015-08-19T11:04:12Z</time>
      </trkpt>
      <trkpt lat="45.12784" lon="3.9984">
        <ele>686.01</ele>
        <time>2015-08-19T11:04:21Z</time>
      </trkpt>
      <trkpt lat="45.12775" lon="3.99855">
        <ele>685.64</ele>
        <time>2015-08-19T11:04:30Z</time>
      </trkpt>
      <trkpt lat="45.12769" lon="3.99866">
        <ele>685.66</ele>
        <time>2015-08-19T11:04:36Z</time>
      </trkpt>
      <trkpt lat="45.12757" lon="3.99874">
        <ele>685.85</ele>
        <time>2015-08-19T11:04:45Z</time>
      </trkpt>
      <trkpt lat="45.12748" lon="3.99884">
        <ele>686.6</ele>
        <time>2015-08-19T11:04:54Z</time>
      </trkpt>
      <trkpt lat="45.12738" lon="3.99892">
        <ele>688.11</ele>
        <time>2015-08-19T11:05:06Z</time>
      </trkpt>
      <trkpt lat="45.12728" lon="3.99898">
        <ele>688.74</ele>
        <time>2015-08-19T11:05:15Z</time>
      </trkpt>
      <trkpt lat="45.12721" lon="3.99906">
        <ele>688.79</ele>
        <time>2015-08-19T11:05:21Z</time>
      </trkpt>
      <trkpt lat="45.12711" lon="3.99917">
        <ele>688.8</ele>
        <time>2015-08-19T11:05:30Z</time>
      </trkpt>
      <trkpt lat="45.12703" lon="3.99925">
        <ele>689.16</ele>
        <time>2015-08-19T11:05:36Z</time>
      </trkpt>
      <trkpt lat="45.12695" lon="3.99932">
        <ele>689.46</ele>
        <time>2015-08-19T11:05:42Z</time>
      </trkpt>
      <trkpt lat="45.12689" lon="3.99945">
        <ele>692.02</ele>
        <time>2015-08-19T11:06:00Z</time>
      </trkpt>
      <trkpt lat="45.12697" lon="3.99938">
        <ele>696.72</ele>
        <time>2015-08-19T11:06:12Z</time>
      </trkpt>
      <trkpt lat="45.127" lon="3.99922">
        <ele>699.41</ele>
        <time>2015-08-19T11:06:33Z</time>
      </trkpt>
      <trkpt lat="45.12711" lon="3.99913">
        <ele>698</ele>
        <time>2015-08-19T11:06:42Z</time>
      </trkpt>
      <trkpt lat="45.1272" lon="3.99908">
        <ele>696.3</ele>
        <time>2015-08-19T11:06:51Z</time>
      </trkpt>
      <trkpt lat="45.12728" lon="3.999">
        <ele>695.48</ele>
        <time>2015-08-19T11:07:00Z</time>
      </trkpt>
      <trkpt lat="45.12737" lon="3.99891">
        <ele>694.68</ele>
        <time>2015-08-19T11:07:09Z</time>
      </trkpt>
      <trkpt lat="45.12747" lon="3.99885">
        <ele>694.14</ele>
        <time>2015-08-19T11:07:18Z</time>
      </trkpt>
      <trkpt lat="45.12758" lon="3.99879">
        <ele>693.65</ele>
        <time>2015-08-19T11:07:27Z</time>
      </trkpt>
      <trkpt lat="45.12767" lon="3.99871">
        <ele>693.03</ele>
        <time>2015-08-19T11:07:36Z</time>
      </trkpt>
      <trkpt lat="45.12788" lon="3.99841">
        <ele>690.39</ele>
        <time>2015-08-19T11:07:57Z</time>
      </trkpt>
      <trkpt lat="45.12793" lon="3.99813">
        <ele>686.86</ele>
        <time>2015-08-19T11:08:12Z</time>
      </trkpt>
      <trkpt lat="45.12801" lon="3.99822">
        <ele>685.02</ele>
        <time>2015-08-19T11:08:18Z</time>
      </trkpt>
      <trkpt lat="45.1281" lon="3.99816">
        <ele>685.06</ele>
        <time>2015-08-19T11:08:30Z</time>
      </trkpt>
      <trkpt lat="45.12821" lon="3.99828">
        <ele>685.2</ele>
        <time>2015-08-19T11:08:41Z</time>
      </trkpt>
      <trkpt lat="45.12829" lon="3.99833">
        <ele>684.71</ele>
        <time>2015-08-19T11:08:50Z</time>
      </trkpt>
      <trkpt lat="45.12839" lon="3.99847">
        <ele>684.66</ele>
        <time>2015-08-19T11:08:59Z</time>
      </trkpt>
      <trkpt lat="45.12848" lon="3.99857">
        <ele>684.53</ele>
        <time>2015-08-19T11:09:08Z</time>
      </trkpt>
      <trkpt lat="45.12856" lon="3.9987">
        <ele>684.95</ele>
        <time>2015-08-19T11:09:20Z</time>
      </trkpt>
      <trkpt lat="45.1286" lon="3.99887">
        <ele>686.37</ele>
        <time>2015-08-19T11:09:29Z</time>
      </trkpt>
      <trkpt lat="45.12856" lon="3.99901">
        <ele>687.19</ele>
        <time>2015-08-19T11:09:35Z</time>
      </trkpt>
      <trkpt lat="45.12849" lon="3.9991">
        <ele>687.81</ele>
        <time>2015-08-19T11:09:41Z</time>
      </trkpt>
      <trkpt lat="45.12842" lon="3.99922">
        <ele>688.63</ele>
        <time>2015-08-19T11:09:50Z</time>
      </trkpt>
      <trkpt lat="45.12837" lon="3.99934">
        <ele>690.59</ele>
        <time>2015-08-19T11:10:02Z</time>
      </trkpt>
      <trkpt lat="45.12844" lon="3.99944">
        <ele>692.88</ele>
        <time>2015-08-19T11:10:14Z</time>
      </trkpt>
      <trkpt lat="45.12854" lon="3.99951">
        <ele>694.44</ele>
        <time>2015-08-19T11:10:26Z</time>
      </trkpt>
      <trkpt lat="45.12865" lon="3.9996">
        <ele>695.46</ele>
        <time>2015-08-19T11:10:35Z</time>
      </trkpt>
      <trkpt lat="45.12871" lon="3.99969">
        <ele>698.82</ele>
        <time>2015-08-19T11:10:50Z</time>
      </trkpt>
      <trkpt lat="45.12872" lon="3.99985">
        <ele>701.94</ele>
        <time>2015-08-19T11:11:53Z</time>
      </trkpt>
      <trkpt lat="45.12876" lon="3.99999">
        <ele>702.31</ele>
        <time>2015-08-19T11:12:02Z</time>
      </trkpt>
      <trkpt lat="45.1288" lon="4.00016">
        <ele>703.43</ele>
        <time>2015-08-19T11:12:14Z</time>
      </trkpt>
      <trkpt lat="45.12888" lon="4.00023">
        <ele>706.18</ele>
        <time>2015-08-19T11:12:26Z</time>
      </trkpt>
      <trkpt lat="45.12897" lon="4.00031">
        <ele>709.45</ele>
        <time>2015-08-19T11:12:38Z</time>
      </trkpt>
      <trkpt lat="45.12903" lon="4.00045">
        <ele>711.1</ele>
        <time>2015-08-19T11:12:47Z</time>
      </trkpt>
      <trkpt lat="45.12906" lon="4.00059">
        <ele>712.95</ele>
        <time>2015-08-19T11:12:56Z</time>
      </trkpt>
      <trkpt lat="45.12907" lon="4.00072">
        <ele>713.99</ele>
        <time>2015-08-19T11:13:05Z</time>
      </trkpt>
      <trkpt lat="45.12912" lon="4.00083">
        <ele>714.19</ele>
        <time>2015-08-19T11:13:17Z</time>
      </trkpt>
      <trkpt lat="45.1292" lon="4.0009">
        <ele>714.61</ele>
        <time>2015-08-19T11:13:26Z</time>
      </trkpt>
      <trkpt lat="45.12929" lon="4.00094">
        <ele>716.46</ele>
        <time>2015-08-19T11:13:38Z</time>
      </trkpt>
      <trkpt lat="45.12941" lon="4.00099">
        <ele>719.12</ele>
        <time>2015-08-19T11:13:50Z</time>
      </trkpt>
      <trkpt lat="45.12948" lon="4.00109">
        <ele>720.14</ele>
        <time>2015-08-19T11:14:02Z</time>
      </trkpt>
      <trkpt lat="45.12954" lon="4.00122">
        <ele>720.52</ele>
        <time>2015-08-19T11:14:11Z</time>
      </trkpt>
      <trkpt lat="45.12962" lon="4.00134">
        <ele>721.47</ele>
        <time>2015-08-19T11:14:20Z</time>
      </trkpt>
      <trkpt lat="45.1297" lon="4.00146">
        <ele>721.61</ele>
        <time>2015-08-19T11:14:32Z</time>
      </trkpt>
      <trkpt lat="45.12976" lon="4.00156">
        <ele>721.71</ele>
        <time>2015-08-19T11:14:38Z</time>
      </trkpt>
      <trkpt lat="45.12981" lon="4.00168">
        <ele>722.33</ele>
        <time>2015-08-19T11:14:44Z</time>
      </trkpt>
      <trkpt lat="45.12986" lon="4.00183">
        <ele>723.09</ele>
        <time>2015-08-19T11:14:53Z</time>
      </trkpt>
      <trkpt lat="45.12991" lon="4.00195">
        <ele>723.37</ele>
        <time>2015-08-19T11:14:59Z</time>
      </trkpt>
      <trkpt lat="45.12998" lon="4.00206">
        <ele>723.13</ele>
        <time>2015-08-19T11:15:11Z</time>
      </trkpt>
      <trkpt lat="45.13006" lon="4.00221">
        <ele>723.3</ele>
        <time>2015-08-19T11:15:18Z</time>
      </trkpt>
      <trkpt lat="45.13011" lon="4.00233">
        <ele>723.68</ele>
        <time>2015-08-19T11:15:24Z</time>
      </trkpt>
      <trkpt lat="45.13011" lon="4.00246">
        <ele>725.21</ele>
        <time>2015-08-19T11:15:39Z</time>
      </trkpt>
      <trkpt lat="45.13011" lon="4.0026">
        <ele>727.59</ele>
        <time>2015-08-19T11:15:54Z</time>
      </trkpt>
      <trkpt lat="45.1301" lon="4.00276">
        <ele>729.53</ele>
        <time>2015-08-19T11:16:06Z</time>
      </trkpt>
      <trkpt lat="45.13011" lon="4.0029">
        <ele>731.4</ele>
        <time>2015-08-19T11:16:12Z</time>
      </trkpt>
      <trkpt lat="45.13012" lon="4.00306">
        <ele>733.54</ele>
        <time>2015-08-19T11:16:18Z</time>
      </trkpt>
      <trkpt lat="45.13013" lon="4.00321">
        <ele>736.91</ele>
        <time>2015-08-19T11:16:27Z</time>
      </trkpt>
      <trkpt lat="45.13012" lon="4.00337">
        <ele>739.77</ele>
        <time>2015-08-19T11:16:39Z</time>
      </trkpt>
      <trkpt lat="45.13013" lon="4.00351">
        <ele>740.34</ele>
        <time>2015-08-19T11:16:45Z</time>
      </trkpt>
      <trkpt lat="45.13013" lon="4.0037">
        <ele>740.98</ele>
        <time>2015-08-19T11:16:54Z</time>
      </trkpt>
      <trkpt lat="45.13008" lon="4.00384">
        <ele>741.64</ele>
        <time>2015-08-19T11:17:06Z</time>
      </trkpt>
      <trkpt lat="45.13005" lon="4.00397">
        <ele>741.85</ele>
        <time>2015-08-19T11:17:12Z</time>
      </trkpt>
      <trkpt lat="45.12999" lon="4.00409">
        <ele>741.57</ele>
        <time>2015-08-19T11:17:24Z</time>
      </trkpt>
      <trkpt lat="45.12991" lon="4.00415">
        <ele>742.78</ele>
        <time>2015-08-19T11:17:39Z</time>
      </trkpt>
      <trkpt lat="45.1299" lon="4.00429">
        <ele>744.74</ele>
        <time>2015-08-19T11:17:48Z</time>
      </trkpt>
      <trkpt lat="45.12991" lon="4.00443">
        <ele>746.64</ele>
        <time>2015-08-19T11:17:57Z</time>
      </trkpt>
      <trkpt lat="45.12985" lon="4.00456">
        <ele>751.43</ele>
        <time>2015-08-19T11:18:09Z</time>
      </trkpt>
      <trkpt lat="45.1298" lon="4.00472">
        <ele>756.16</ele>
        <time>2015-08-19T11:18:21Z</time>
      </trkpt>
      <trkpt lat="45.12979" lon="4.00487">
        <ele>759.16</ele>
        <time>2015-08-19T11:18:30Z</time>
      </trkpt>
      <trkpt lat="45.12974" lon="4.00501">
        <ele>760.89</ele>
        <time>2015-08-19T11:18:39Z</time>
      </trkpt>
      <trkpt lat="45.12966" lon="4.00513">
        <ele>761.79</ele>
        <time>2015-08-19T11:18:48Z</time>
      </trkpt>
      <trkpt lat="45.12959" lon="4.00527">
        <ele>762.08</ele>
        <time>2015-08-19T11:18:57Z</time>
      </trkpt>
      <trkpt lat="45.12958" lon="4.0054">
        <ele>762.44</ele>
        <time>2015-08-19T11:19:09Z</time>
      </trkpt>
      <trkpt lat="45.12947" lon="4.00551">
        <ele>763.7</ele>
        <time>2015-08-19T11:19:18Z</time>
      </trkpt>
      <trkpt lat="45.1294" lon="4.00565">
        <ele>764.8</ele>
        <time>2015-08-19T11:19:27Z</time>
      </trkpt>
      <trkpt lat="45.12931" lon="4.00578">
        <ele>765.52</ele>
        <time>2015-08-19T11:19:36Z</time>
      </trkpt>
      <trkpt lat="45.12933" lon="4.00591">
        <ele>766.93</ele>
        <time>2015-08-19T11:19:45Z</time>
      </trkpt>
      <trkpt lat="45.1294" lon="4.00601">
        <ele>768.06</ele>
        <time>2015-08-19T11:19:54Z</time>
      </trkpt>
      <trkpt lat="45.12948" lon="4.00607">
        <ele>768.78</ele>
        <time>2015-08-19T11:20:01Z</time>
      </trkpt>
      <trkpt lat="45.12958" lon="4.00608">
        <ele>769.45</ele>
        <time>2015-08-19T11:20:10Z</time>
      </trkpt>
      <trkpt lat="45.12969" lon="4.006">
        <ele>770.12</ele>
        <time>2015-08-19T11:20:22Z</time>
      </trkpt>
      <trkpt lat="45.12979" lon="4.00597">
        <ele>770.11</ele>
        <time>2015-08-19T11:20:31Z</time>
      </trkpt>
      <trkpt lat="45.1299" lon="4.00596">
        <ele>770.63</ele>
        <time>2015-08-19T11:20:40Z</time>
      </trkpt>
      <trkpt lat="45.13" lon="4.00596">
        <ele>771.48</ele>
        <time>2015-08-19T11:20:46Z</time>
      </trkpt>
      <trkpt lat="45.1301" lon="4.00596">
        <ele>772.11</ele>
        <time>2015-08-19T11:20:52Z</time>
      </trkpt>
      <trkpt lat="45.13019" lon="4.00597">
        <ele>773.34</ele>
        <time>2015-08-19T11:21:01Z</time>
      </trkpt>
      <trkpt lat="45.13028" lon="4.00595">
        <ele>774.94</ele>
        <time>2015-08-19T11:21:10Z</time>
      </trkpt>
      <trkpt lat="45.13038" lon="4.00587">
        <ele>776.43</ele>
        <time>2015-08-19T11:21:19Z</time>
      </trkpt>
      <trkpt lat="45.13045" lon="4.00578">
        <ele>777.06</ele>
        <time>2015-08-19T11:21:28Z</time>
      </trkpt>
      <trkpt lat="45.13053" lon="4.00571">
        <ele>777.79</ele>
        <time>2015-08-19T11:21:37Z</time>
      </trkpt>
      <trkpt lat="45.13062" lon="4.00564">
        <ele>778.56</ele>
        <time>2015-08-19T11:21:46Z</time>
      </trkpt>
      <trkpt lat="45.13073" lon="4.00562">
        <ele>779.16</ele>
        <time>2015-08-19T11:22:03Z</time>
      </trkpt>
      <trkpt lat="45.13084" lon="4.00552">
        <ele>779.52</ele>
        <time>2015-08-19T11:22:12Z</time>
      </trkpt>
      <trkpt lat="45.13093" lon="4.00543">
        <ele>779.97</ele>
        <time>2015-08-19T11:22:21Z</time>
      </trkpt>
      <trkpt lat="45.13102" lon="4.00537">
        <ele>780.55</ele>
        <time>2015-08-19T11:22:30Z</time>
      </trkpt>
      <trkpt lat="45.13113" lon="4.00529">
        <ele>781.38</ele>
        <time>2015-08-19T11:22:39Z</time>
      </trkpt>
      <trkpt lat="45.13124" lon="4.0052">
        <ele>781.93</ele>
        <time>2015-08-19T11:22:48Z</time>
      </trkpt>
      <trkpt lat="45.13134" lon="4.00511">
        <ele>782.2</ele>
        <time>2015-08-19T11:22:57Z</time>
      </trkpt>
      <trkpt lat="45.13145" lon="4.00502">
        <ele>783.01</ele>
        <time>2015-08-19T11:23:06Z</time>
      </trkpt>
      <trkpt lat="45.13155" lon="4.005">
        <ele>783.72</ele>
        <time>2015-08-19T11:23:32Z</time>
      </trkpt>
      <trkpt lat="45.13161" lon="4.00488">
        <ele>783.72</ele>
        <time>2015-08-19T11:23:41Z</time>
      </trkpt>
      <trkpt lat="45.13165" lon="4.00471">
        <ele>783.44</ele>
        <time>2015-08-19T11:23:50Z</time>
      </trkpt>
      <trkpt lat="45.13172" lon="4.00455">
        <ele>783.28</ele>
        <time>2015-08-19T11:23:59Z</time>
      </trkpt>
      <trkpt lat="45.13172" lon="4.0044">
        <ele>783.95</ele>
        <time>2015-08-19T11:24:08Z</time>
      </trkpt>
      <trkpt lat="45.13175" lon="4.00423">
        <ele>784.53</ele>
        <time>2015-08-19T11:24:17Z</time>
      </trkpt>
      <trkpt lat="45.13177" lon="4.0041">
        <ele>784.84</ele>
        <time>2015-08-19T11:24:23Z</time>
      </trkpt>
      <trkpt lat="45.13184" lon="4.00394">
        <ele>785.04</ele>
        <time>2015-08-19T11:24:35Z</time>
      </trkpt>
      <trkpt lat="45.1319" lon="4.00381">
        <ele>784.98</ele>
        <time>2015-08-19T11:24:44Z</time>
      </trkpt>
      <trkpt lat="45.132" lon="4.00368">
        <ele>784.65</ele>
        <time>2015-08-19T11:25:05Z</time>
      </trkpt>
      <trkpt lat="45.13207" lon="4.00357">
        <ele>783.97</ele>
        <time>2015-08-19T11:25:17Z</time>
      </trkpt>
      <trkpt lat="45.13217" lon="4.00343">
        <ele>782.97</ele>
        <time>2015-08-19T11:25:30Z</time>
      </trkpt>
      <trkpt lat="45.13222" lon="4.00324">
        <ele>781.67</ele>
        <time>2015-08-19T11:25:39Z</time>
      </trkpt>
      <trkpt lat="45.13226" lon="4.00312">
        <ele>779.89</ele>
        <time>2015-08-19T11:25:51Z</time>
      </trkpt>
      <trkpt lat="45.13229" lon="4.00295">
        <ele>778.39</ele>
        <time>2015-08-19T11:26:00Z</time>
      </trkpt>
      <trkpt lat="45.13233" lon="4.00284">
        <ele>777.65</ele>
        <time>2015-08-19T11:26:06Z</time>
      </trkpt>
      <trkpt lat="45.13235" lon="4.00269">
        <ele>776.86</ele>
        <time>2015-08-19T11:26:15Z</time>
      </trkpt>
      <trkpt lat="45.13237" lon="4.00256">
        <ele>774.01</ele>
        <time>2015-08-19T11:26:42Z</time>
      </trkpt>
      <trkpt lat="45.13242" lon="4.00243">
        <ele>769.3</ele>
        <time>2015-08-19T11:27:45Z</time>
      </trkpt>
      <trkpt lat="45.13247" lon="4.00228">
        <ele>769.08</ele>
        <time>2015-08-19T11:27:54Z</time>
      </trkpt>
      <trkpt lat="45.1325" lon="4.00215">
        <ele>768.84</ele>
        <time>2015-08-19T11:28:03Z</time>
      </trkpt>
      <trkpt lat="45.13255" lon="4.00197">
        <ele>768.65</ele>
        <time>2015-08-19T11:28:12Z</time>
      </trkpt>
      <trkpt lat="45.13259" lon="4.00183">
        <ele>768.09</ele>
        <time>2015-08-19T11:28:21Z</time>
      </trkpt>
      <trkpt lat="45.13262" lon="4.0017">
        <ele>766.95</ele>
        <time>2015-08-19T11:28:33Z</time>
      </trkpt>
      <trkpt lat="45.13254" lon="4.00162">
        <ele>765.44</ele>
        <time>2015-08-19T11:28:48Z</time>
      </trkpt>
      <trkpt lat="45.13246" lon="4.00154">
        <ele>764.19</ele>
        <time>2015-08-19T11:28:54Z</time>
      </trkpt>
      <trkpt lat="45.13239" lon="4.00141">
        <ele>762.42</ele>
        <time>2015-08-19T11:29:03Z</time>
      </trkpt>
      <trkpt lat="45.1323" lon="4.00127">
        <ele>761.19</ele>
        <time>2015-08-19T11:29:12Z</time>
      </trkpt>
      <trkpt lat="45.13224" lon="4.00111">
        <ele>760.09</ele>
        <time>2015-08-19T11:29:21Z</time>
      </trkpt>
      <trkpt lat="45.13219" lon="4.00098">
        <ele>759.08</ele>
        <time>2015-08-19T11:29:27Z</time>
      </trkpt>
      <trkpt lat="45.13212" lon="4.00083">
        <ele>757.19</ele>
        <time>2015-08-19T11:29:36Z</time>
      </trkpt>
      <trkpt lat="45.13208" lon="4.00069">
        <ele>755.59</ele>
        <time>2015-08-19T11:29:45Z</time>
      </trkpt>
      <trkpt lat="45.13202" lon="4.0006">
        <ele>753.18</ele>
        <time>2015-08-19T11:30:57Z</time>
      </trkpt>
      <trkpt lat="45.13204" lon="4.00047">
        <ele>750.86</ele>
        <time>2015-08-19T11:31:18Z</time>
      </trkpt>
      <trkpt lat="45.13199" lon="4.00032">
        <ele>750.91</ele>
        <time>2015-08-19T11:31:27Z</time>
      </trkpt>
      <trkpt lat="45.13188" lon="4.00023">
        <ele>751.07</ele>
        <time>2015-08-19T11:31:36Z</time>
      </trkpt>
      <trkpt lat="45.13178" lon="4.00011">
        <ele>750.89</ele>
        <time>2015-08-19T11:31:45Z</time>
      </trkpt>
      <trkpt lat="45.13173" lon="3.99996">
        <ele>748.35</ele>
        <time>2015-08-19T11:33:27Z</time>
      </trkpt>
      <trkpt lat="45.13171" lon="3.99983">
        <ele>748.25</ele>
        <time>2015-08-19T11:33:36Z</time>
      </trkpt>
      <trkpt lat="45.13162" lon="3.99978">
        <ele>748.34</ele>
        <time>2015-08-19T11:33:45Z</time>
      </trkpt>
      <trkpt lat="45.1315" lon="3.99979">
        <ele>748.26</ele>
        <time>2015-08-19T11:33:54Z</time>
      </trkpt>
      <trkpt lat="45.13145" lon="3.99991">
        <ele>747.9</ele>
        <time>2015-08-19T11:34:12Z</time>
      </trkpt>
      <trkpt lat="45.13156" lon="3.99987">
        <ele>747.39</ele>
        <time>2015-08-19T11:35:53Z</time>
      </trkpt>
      <trkpt lat="45.13166" lon="3.99994">
        <ele>747.49</ele>
        <time>2015-08-19T11:36:02Z</time>
      </trkpt>
      <trkpt lat="45.13174" lon="4.00002">
        <ele>747.16</ele>
        <time>2015-08-19T11:36:08Z</time>
      </trkpt>
      <trkpt lat="45.13184" lon="4.00011">
        <ele>746.53</ele>
        <time>2015-08-19T11:36:17Z</time>
      </trkpt>
      <trkpt lat="45.13193" lon="4.00021">
        <ele>745.43</ele>
        <time>2015-08-19T11:36:26Z</time>
      </trkpt>
      <trkpt lat="45.13202" lon="4.00029">
        <ele>744.81</ele>
        <time>2015-08-19T11:36:35Z</time>
      </trkpt>
      <trkpt lat="45.13208" lon="4.00044">
        <ele>744.73</ele>
        <time>2015-08-19T11:36:44Z</time>
      </trkpt>
      <trkpt lat="45.1321" lon="4.00058">
        <ele>744.52</ele>
        <time>2015-08-19T11:36:53Z</time>
      </trkpt>
      <trkpt lat="45.13202" lon="4.00053">
        <ele>742.22</ele>
        <time>2015-08-19T11:38:41Z</time>
      </trkpt>
      <trkpt lat="45.13193" lon="4.00058">
        <ele>727.38</ele>
        <time>2015-08-19T11:40:08Z</time>
      </trkpt>
      <trkpt lat="45.13184" lon="4.00063">
        <ele>726.57</ele>
        <time>2015-08-19T11:40:23Z</time>
      </trkpt>
      <trkpt lat="45.13175" lon="4.00064">
        <ele>719.4</ele>
        <time>2015-08-19T11:41:17Z</time>
      </trkpt>
      <trkpt lat="45.13166" lon="4.00065">
        <ele>718.87</ele>
        <time>2015-08-19T11:41:38Z</time>
      </trkpt>
      <trkpt lat="45.13157" lon="4.00058">
        <ele>717.35</ele>
        <time>2015-08-19T11:42:18Z</time>
      </trkpt>
      <trkpt lat="45.13148" lon="4.00062">
        <ele>713.13</ele>
        <time>2015-08-19T11:43:03Z</time>
      </trkpt>
      <trkpt lat="45.13139" lon="4.00064">
        <ele>712.04</ele>
        <time>2015-08-19T11:43:15Z</time>
      </trkpt>
      <trkpt lat="45.13133" lon="4.00074">
        <ele>711.33</ele>
        <time>2015-08-19T11:43:42Z</time>
      </trkpt>
      <trkpt lat="45.13124" lon="4.00081">
        <ele>710.64</ele>
        <time>2015-08-19T11:43:57Z</time>
      </trkpt>
      <trkpt lat="45.13114" lon="4.00088">
        <ele>707.65</ele>
        <time>2015-08-19T11:44:15Z</time>
      </trkpt>
      <trkpt lat="45.1311" lon="4.00099">
        <ele>702.47</ele>
        <time>2015-08-19T11:44:48Z</time>
      </trkpt>
      <trkpt lat="45.13099" lon="4.00105">
        <ele>700.56</ele>
        <time>2015-08-19T11:44:57Z</time>
      </trkpt>
      <trkpt lat="45.1309" lon="4.00113">
        <ele>698.49</ele>
        <time>2015-08-19T11:45:12Z</time>
      </trkpt>
      <trkpt lat="45.13082" lon="4.00121">
        <ele>698.12</ele>
        <time>2015-08-19T11:45:21Z</time>
      </trkpt>
      <trkpt lat="45.13071" lon="4.00128">
        <ele>697.26</ele>
        <time>2015-08-19T11:45:30Z</time>
      </trkpt>
      <trkpt lat="45.13061" lon="4.00126">
        <ele>695.28</ele>
        <time>2015-08-19T11:45:48Z</time>
      </trkpt>
      <trkpt lat="45.13058" lon="4.00113">
        <ele>694.58</ele>
        <time>2015-08-19T11:46:15Z</time>
      </trkpt>
      <trkpt lat="45.13048" lon="4.00116">
        <ele>689.69</ele>
        <time>2015-08-19T11:46:45Z</time>
      </trkpt>
      <trkpt lat="45.13043" lon="4.00103">
        <ele>687</ele>
        <time>2015-08-19T11:48:53Z</time>
      </trkpt>
      <trkpt lat="45.13047" lon="4.00116">
        <ele>687.74</ele>
        <time>2015-08-19T11:49:35Z</time>
      </trkpt>
      <trkpt lat="45.13041" lon="4.00104">
        <ele>688.19</ele>
        <time>2015-08-19T11:50:35Z</time>
      </trkpt>
      <trkpt lat="45.13032" lon="4.00101">
        <ele>687.16</ele>
        <time>2015-08-19T11:51:08Z</time>
      </trkpt>
      <trkpt lat="45.1304" lon="4.00109">
        <ele>686.84</ele>
        <time>2015-08-19T11:52:02Z</time>
      </trkpt>
      <trkpt lat="45.13048" lon="4.00114">
        <ele>687.27</ele>
        <time>2015-08-19T11:52:23Z</time>
      </trkpt>
      <trkpt lat="45.13059" lon="4.00114">
        <ele>688.1</ele>
        <time>2015-08-19T11:52:35Z</time>
      </trkpt>
      <trkpt lat="45.13068" lon="4.00108">
        <ele>690.19</ele>
        <time>2015-08-19T11:52:47Z</time>
      </trkpt>
      <trkpt lat="45.13076" lon="4.001">
        <ele>692.96</ele>
        <time>2015-08-19T11:53:08Z</time>
      </trkpt>
      <trkpt lat="45.13111" lon="4.001">
        <ele>755.02</ele>
        <time>2015-08-19T12:22:56Z</time>
      </trkpt>
      <trkpt lat="45.13093" lon="4.00091">
        <ele>711.49</ele>
        <time>2015-08-19T12:23:08Z</time>
      </trkpt>
      <trkpt lat="45.13103" lon="4.00072">
        <ele>703.57</ele>
        <time>2015-08-19T12:23:17Z</time>
      </trkpt>
      <trkpt lat="45.13111" lon="4.00061">
        <ele>694.44</ele>
        <time>2015-08-19T12:23:29Z</time>
      </trkpt>
      <trkpt lat="45.13118" lon="4.00049">
        <ele>690.54</ele>
        <time>2015-08-19T12:23:47Z</time>
      </trkpt>
      <trkpt lat="45.13126" lon="4.00042">
        <ele>688.92</ele>
        <time>2015-08-19T12:24:08Z</time>
      </trkpt>
      <trkpt lat="45.13136" lon="4.00042">
        <ele>688.81</ele>
        <time>2015-08-19T12:24:17Z</time>
      </trkpt>
      <trkpt lat="45.13147" lon="4.00042">
        <ele>688.74</ele>
        <time>2015-08-19T12:24:27Z</time>
      </trkpt>
      <trkpt lat="45.13156" lon="4.00048">
        <ele>687.33</ele>
        <time>2015-08-19T12:24:55Z</time>
      </trkpt>
      <trkpt lat="45.13159" lon="4.00063">
        <ele>686.85</ele>
        <time>2015-08-19T12:25:10Z</time>
      </trkpt>
      <trkpt lat="45.13168" lon="4.00066">
        <ele>686.29</ele>
        <time>2015-08-19T12:25:31Z</time>
      </trkpt>
      <trkpt lat="45.13178" lon="4.00067">
        <ele>687.29</ele>
        <time>2015-08-19T12:25:43Z</time>
      </trkpt>
      <trkpt lat="45.13188" lon="4.00072">
        <ele>687.74</ele>
        <time>2015-08-19T12:26:01Z</time>
      </trkpt>
      <trkpt lat="45.13193" lon="4.00062">
        <ele>687.5</ele>
        <time>2015-08-19T12:26:13Z</time>
      </trkpt>
      <trkpt lat="45.13199" lon="4.00053">
        <ele>690.17</ele>
        <time>2015-08-19T12:26:43Z</time>
      </trkpt>
      <trkpt lat="45.13205" lon="4.00064">
        <ele>693.95</ele>
        <time>2015-08-19T12:26:58Z</time>
      </trkpt>
      <trkpt lat="45.13199" lon="4.00077">
        <ele>699.09</ele>
        <time>2015-08-19T12:27:16Z</time>
      </trkpt>
      <trkpt lat="45.13207" lon="4.0007">
        <ele>702.74</ele>
        <time>2015-08-19T12:27:37Z</time>
      </trkpt>
      <trkpt lat="45.13203" lon="4.00055">
        <ele>704.88</ele>
        <time>2015-08-19T12:27:49Z</time>
      </trkpt>
      <trkpt lat="45.13206" lon="4.00038">
        <ele>717.45</ele>
        <time>2015-08-19T12:28:37Z</time>
      </trkpt>
      <trkpt lat="45.13206" lon="4.00024">
        <ele>720.7</ele>
        <time>2015-08-19T12:28:46Z</time>
      </trkpt>
      <trkpt lat="45.13207" lon="4.00008">
        <ele>723.58</ele>
        <time>2015-08-19T12:28:55Z</time>
      </trkpt>
      <trkpt lat="45.13205" lon="3.99991">
        <ele>726.28</ele>
        <time>2015-08-19T12:29:07Z</time>
      </trkpt>
      <trkpt lat="45.13207" lon="3.99977">
        <ele>728.06</ele>
        <time>2015-08-19T12:29:16Z</time>
      </trkpt>
      <trkpt lat="45.13207" lon="3.99958">
        <ele>730.38</ele>
        <time>2015-08-19T12:29:25Z</time>
      </trkpt>
      <trkpt lat="45.13209" lon="3.99941">
        <ele>732.88</ele>
        <time>2015-08-19T12:29:34Z</time>
      </trkpt>
      <trkpt lat="45.13213" lon="3.99926">
        <ele>734.44</ele>
        <time>2015-08-19T12:29:43Z</time>
      </trkpt>
      <trkpt lat="45.13211" lon="3.9991">
        <ele>735.02</ele>
        <time>2015-08-19T12:29:52Z</time>
      </trkpt>
      <trkpt lat="45.13213" lon="3.99895">
        <ele>736</ele>
        <time>2015-08-19T12:30:01Z</time>
      </trkpt>
      <trkpt lat="45.13217" lon="3.99879">
        <ele>736.68</ele>
        <time>2015-08-19T12:30:13Z</time>
      </trkpt>
      <trkpt lat="45.13215" lon="3.99864">
        <ele>736.83</ele>
        <time>2015-08-19T12:30:22Z</time>
      </trkpt>
      <trkpt lat="45.13216" lon="3.9985">
        <ele>737.01</ele>
        <time>2015-08-19T12:30:31Z</time>
      </trkpt>
      <trkpt lat="45.1322" lon="3.99832">
        <ele>736.6</ele>
        <time>2015-08-19T12:30:40Z</time>
      </trkpt>
      <trkpt lat="45.13225" lon="3.99819">
        <ele>738.41</ele>
        <time>2015-08-19T12:31:07Z</time>
      </trkpt>
      <trkpt lat="45.13228" lon="3.99802">
        <ele>738.44</ele>
        <time>2015-08-19T12:31:15Z</time>
      </trkpt>
      <trkpt lat="45.13232" lon="3.99786">
        <ele>737.93</ele>
        <time>2015-08-19T12:31:24Z</time>
      </trkpt>
      <trkpt lat="45.13236" lon="3.9977">
        <ele>737.07</ele>
        <time>2015-08-19T12:31:33Z</time>
      </trkpt>
      <trkpt lat="45.13236" lon="3.99757">
        <ele>736.3</ele>
        <time>2015-08-19T12:31:42Z</time>
      </trkpt>
      <trkpt lat="45.13237" lon="3.99744">
        <ele>735.01</ele>
        <time>2015-08-19T12:31:54Z</time>
      </trkpt>
      <trkpt lat="45.13241" lon="3.99731">
        <ele>733.72</ele>
        <time>2015-08-19T12:32:06Z</time>
      </trkpt>
      <trkpt lat="45.13242" lon="3.99718">
        <ele>732.49</ele>
        <time>2015-08-19T12:32:15Z</time>
      </trkpt>
      <trkpt lat="45.13236" lon="3.99703">
        <ele>731.47</ele>
        <time>2015-08-19T12:32:24Z</time>
      </trkpt>
      <trkpt lat="45.1323" lon="3.9969">
        <ele>732.25</ele>
        <time>2015-08-19T12:32:33Z</time>
      </trkpt>
      <trkpt lat="45.13229" lon="3.99677">
        <ele>733.5</ele>
        <time>2015-08-19T12:32:42Z</time>
      </trkpt>
      <trkpt lat="45.1323" lon="3.99664">
        <ele>734.46</ele>
        <time>2015-08-19T12:32:51Z</time>
      </trkpt>
      <trkpt lat="45.13234" lon="3.99646">
        <ele>734.8</ele>
        <time>2015-08-19T12:33:03Z</time>
      </trkpt>
      <trkpt lat="45.13239" lon="3.99633">
        <ele>733.85</ele>
        <time>2015-08-19T12:33:12Z</time>
      </trkpt>
      <trkpt lat="45.13245" lon="3.9962">
        <ele>732.21</ele>
        <time>2015-08-19T12:33:21Z</time>
      </trkpt>
      <trkpt lat="45.13248" lon="3.99607">
        <ele>729.91</ele>
        <time>2015-08-19T12:33:33Z</time>
      </trkpt>
      <trkpt lat="45.13245" lon="3.99594">
        <ele>729.08</ele>
        <time>2015-08-19T12:33:39Z</time>
      </trkpt>
      <trkpt lat="45.13245" lon="3.9958">
        <ele>727.75</ele>
        <time>2015-08-19T12:33:48Z</time>
      </trkpt>
      <trkpt lat="45.13245" lon="3.99566">
        <ele>725.64</ele>
        <time>2015-08-19T12:33:57Z</time>
      </trkpt>
      <trkpt lat="45.1325" lon="3.99555">
        <ele>722.78</ele>
        <time>2015-08-19T12:34:12Z</time>
      </trkpt>
      <trkpt lat="45.13254" lon="3.99541">
        <ele>722</ele>
        <time>2015-08-19T12:34:24Z</time>
      </trkpt>
      <trkpt lat="45.13258" lon="3.99525">
        <ele>720.57</ele>
        <time>2015-08-19T12:34:36Z</time>
      </trkpt>
      <trkpt lat="45.13259" lon="3.9951">
        <ele>718.39</ele>
        <time>2015-08-19T12:34:51Z</time>
      </trkpt>
      <trkpt lat="45.13262" lon="3.99498">
        <ele>716.9</ele>
        <time>2015-08-19T12:35:00Z</time>
      </trkpt>
      <trkpt lat="45.13265" lon="3.99483">
        <ele>715.04</ele>
        <time>2015-08-19T12:35:10Z</time>
      </trkpt>
      <trkpt lat="45.1327" lon="3.99471">
        <ele>713.47</ele>
        <time>2015-08-19T12:35:19Z</time>
      </trkpt>
      <trkpt lat="45.13273" lon="3.99456">
        <ele>711.08</ele>
        <time>2015-08-19T12:35:31Z</time>
      </trkpt>
      <trkpt lat="45.13274" lon="3.99442">
        <ele>708.83</ele>
        <time>2015-08-19T12:35:40Z</time>
      </trkpt>
      <trkpt lat="45.13276" lon="3.99429">
        <ele>705.85</ele>
        <time>2015-08-19T12:36:01Z</time>
      </trkpt>
      <trkpt lat="45.13281" lon="3.99414">
        <ele>703.91</ele>
        <time>2015-08-19T12:36:10Z</time>
      </trkpt>
      <trkpt lat="45.13281" lon="3.994">
        <ele>701.86</ele>
        <time>2015-08-19T12:36:19Z</time>
      </trkpt>
      <trkpt lat="45.13277" lon="3.99387">
        <ele>699.27</ele>
        <time>2015-08-19T12:36:31Z</time>
      </trkpt>
      <trkpt lat="45.13272" lon="3.99372">
        <ele>697.41</ele>
        <time>2015-08-19T12:36:40Z</time>
      </trkpt>
      <trkpt lat="45.1327" lon="3.99357">
        <ele>695.97</ele>
        <time>2015-08-19T12:36:49Z</time>
      </trkpt>
      <trkpt lat="45.13276" lon="3.99342">
        <ele>694.33</ele>
        <time>2015-08-19T12:36:58Z</time>
      </trkpt>
      <trkpt lat="45.13284" lon="3.99335">
        <ele>693.11</ele>
        <time>2015-08-19T12:37:04Z</time>
      </trkpt>
      <trkpt lat="45.13292" lon="3.99326">
        <ele>691.37</ele>
        <time>2015-08-19T12:37:13Z</time>
      </trkpt>
      <trkpt lat="45.13301" lon="3.99315">
        <ele>690.05</ele>
        <time>2015-08-19T12:37:22Z</time>
      </trkpt>
      <trkpt lat="45.13306" lon="3.99303">
        <ele>689.43</ele>
        <time>2015-08-19T12:37:28Z</time>
      </trkpt>
      <trkpt lat="45.13314" lon="3.99293">
        <ele>686.9</ele>
        <time>2015-08-19T12:37:40Z</time>
      </trkpt>
      <trkpt lat="45.13323" lon="3.99285">
        <ele>684.45</ele>
        <time>2015-08-19T12:37:52Z</time>
      </trkpt>
      <trkpt lat="45.13333" lon="3.99274">
        <ele>682.63</ele>
        <time>2015-08-19T12:38:02Z</time>
      </trkpt>
      <trkpt lat="45.1334" lon="3.99262">
        <ele>680.25</ele>
        <time>2015-08-19T12:38:11Z</time>
      </trkpt>
      <trkpt lat="45.1335" lon="3.99251">
        <ele>678.15</ele>
        <time>2015-08-19T12:38:23Z</time>
      </trkpt>
      <trkpt lat="45.13357" lon="3.99239">
        <ele>677.25</ele>
        <time>2015-08-19T12:38:32Z</time>
      </trkpt>
      <trkpt lat="45.13364" lon="3.99229">
        <ele>676.21</ele>
        <time>2015-08-19T12:38:41Z</time>
      </trkpt>
      <trkpt lat="45.13368" lon="3.99214">
        <ele>675.3</ele>
        <time>2015-08-19T12:38:50Z</time>
      </trkpt>
      <trkpt lat="45.13371" lon="3.99201">
        <ele>674.75</ele>
        <time>2015-08-19T12:38:59Z</time>
      </trkpt>
      <trkpt lat="45.13378" lon="3.9919">
        <ele>673.94</ele>
        <time>2015-08-19T12:39:08Z</time>
      </trkpt>
    </trkseg>
  </trk>
</gpx>